sensor_id;sensor_type;location;lat;lon;timestamp;pressure;altitude;pressure_sealevel;temperature;humidity
33280;BME280;20403;43.114;12.434;2023-12-29T00:02:09;100101.44;;;9.48;100.00
33280;BME280;20403;43.114;12.434;2023-12-29T00:04:34;100094.38;;;9.42;100.00
33280;BME280;20403;43.114;12.434;2023-12-29T00:07:01;100097.19;;;9.40;100.00
33280;BME280;20403;43.114;12.434;2023-12-29T00:09:27;100095.34;;;9.34;100.00
33280;BME280;20403;43.114;12.434;2023-12-29T00:11:52;100095.97;;;9.36;100.00
33280;BME280;20403;43.114;12.434;2023-12-29T00:14:19;100088.56;;;9.40;100.00
33280;BME280;20403;43.114;12.434;2023-12-29T00:16:45;100092.78;;;9.41;100.00
33280;BME280;20403;43.114;12.434;2023-12-29T00:19:11;100083.56;;;9.38;100.00
33280;BME280;20403;43.114;12.434;2023-12-29T00:21:37;100078.34;;;9.38;100.00
33280;BME280;20403;43.114;12.434;2023-12-29T00:24:04;100079.38;;;9.44;100.00
33280;BME280;20403;43.114;12.434;2023-12-29T00:26:29;100083.34;;;9.40;100.00
33280;BME280;20403;43.114;12.434;2023-12-29T00:28:55;100084.94;;;9.34;100.00
33280;BME280;20403;43.114;12.434;2023-12-29T00:31:20;100088.78;;;9.38;100.00
33280;BME280;20403;43.114;12.434;2023-12-29T00:33:46;100088.09;;;9.30;100.00
33280;BME280;20403;43.114;12.434;2023-12-29T00:36:15;100074.91;;;9.31;100.00
33280;BME280;20403;43.114;12.434;2023-12-29T00:38:41;100075.88;;;9.30;100.00
33280;BME280;20403;43.114;12.434;2023-12-29T00:41:06;100071.69;;;9.29;100.00
33280;BME280;20403;43.114;12.434;2023-12-29T00:43:32;100068.03;;;9.23;100.00
33280;BME280;20403;43.114;12.434;2023-12-29T00:45:57;100072.25;;;9.24;100.00
33280;BME280;20403;43.114;12.434;2023-12-29T00:48:23;100071.88;;;9.28;100.00
33280;BME280;20403;43.114;12.434;2023-12-29T00:50:48;100074.47;;;9.28;100.00
33280;BME280;20403;43.114;12.434;2023-12-29T00:53:13;100067.66;;;9.27;100.00
33280;BME280;20403;43.114;12.434;2023-12-29T00:55:39;100068.03;;;9.23;100.00
33280;BME280;20403;43.114;12.434;2023-12-29T00:58:04;100072.56;;;9.15;100.00
33280;BME280;20403;43.114;12.434;2023-12-29T01:00:30;100079.56;;;9.14;100.00
33280;BME280;20403;43.114;12.434;2023-12-29T01:02:55;100077.75;;;9.15;100.00
33280;BME280;20403;43.114;12.434;2023-12-29T01:05:20;100069.34;;;9.13;100.00
33280;BME280;20403;43.114;12.434;2023-12-29T01:07:46;100065.94;;;9.12;100.00
33280;BME280;20403;43.114;12.434;2023-12-29T01:10:11;100068.13;;;9.09;100.00
33280;BME280;20403;43.114;12.434;2023-12-29T01:12:37;100061.09;;;9.09;100.00
33280;BME280;20403;43.114;12.434;2023-12-29T01:15:03;100067.72;;;9.12;100.00
33280;BME280;20403;43.114;12.434;2023-12-29T01:17:28;100072.19;;;9.18;100.00
33280;BME280;20403;43.114;12.434;2023-12-29T01:19:54;100071.19;;;9.19;100.00
33280;BME280;20403;43.114;12.434;2023-12-29T01:22:20;100083.91;;;9.07;100.00
33280;BME280;20403;43.114;12.434;2023-12-29T01:24:45;100076.66;;;9.02;100.00
33280;BME280;20403;43.114;12.434;2023-12-29T01:27:10;100079.09;;;9.04;100.00
33280;BME280;20403;43.114;12.434;2023-12-29T01:29:36;100080.13;;;9.10;100.00
33280;BME280;20403;43.114;12.434;2023-12-29T01:32:01;100085.72;;;9.07;100.00
33280;BME280;20403;43.114;12.434;2023-12-29T01:34:29;100086.28;;;9.02;100.00
33280;BME280;20403;43.114;12.434;2023-12-29T01:36:58;100082.47;;;9.04;100.00
33280;BME280;20403;43.114;12.434;2023-12-29T01:39:23;100080.63;;;8.98;100.00
33280;BME280;20403;43.114;12.434;2023-12-29T01:41:49;100085.97;;;8.90;100.00
33280;BME280;20403;43.114;12.434;2023-12-29T01:44:19;100078.78;;;8.92;100.00
33280;BME280;20403;43.114;12.434;2023-12-29T01:46:46;100082.59;;;8.96;100.00
33280;BME280;20403;43.114;12.434;2023-12-29T01:49:15;100083.38;;;8.90;100.00
33280;BME280;20403;43.114;12.434;2023-12-29T01:51:41;100084.34;;;8.89;100.00
33280;BME280;20403;43.114;12.434;2023-12-29T01:54:08;100076.25;;;8.99;100.00
33280;BME280;20403;43.114;12.434;2023-12-29T01:56:33;100070.09;;;9.07;100.00
33280;BME280;20403;43.114;12.434;2023-12-29T01:58:59;100074.06;;;9.02;100.00
33280;BME280;20403;43.114;12.434;2023-12-29T02:01:24;100071.22;;;8.97;100.00
33280;BME280;20403;43.114;12.434;2023-12-29T02:03:50;100062.56;;;8.90;100.00
33280;BME280;20403;43.114;12.434;2023-12-29T02:06:16;100068.16;;;8.94;100.00
33280;BME280;20403;43.114;12.434;2023-12-29T02:08:42;100059.19;;;8.96;100.00
33280;BME280;20403;43.114;12.434;2023-12-29T02:11:08;100062.00;;;8.95;100.00
33280;BME280;20403;43.114;12.434;2023-12-29T02:13:34;100059.00;;;8.98;100.00
33280;BME280;20403;43.114;12.434;2023-12-29T02:16:09;100058.78;;;8.93;100.00
33280;BME280;20403;43.114;12.434;2023-12-29T02:18:38;100062.78;;;8.95;100.00
33280;BME280;20403;43.114;12.434;2023-12-29T02:21:04;100057.41;;;8.97;100.00
33280;BME280;20403;43.114;12.434;2023-12-29T02:23:30;100053.81;;;8.98;100.00
33280;BME280;20403;43.114;12.434;2023-12-29T02:26:00;100056.41;;;8.98;100.00
33280;BME280;20403;43.114;12.434;2023-12-29T02:28:27;100053.97;;;8.96;100.00
33280;BME280;20403;43.114;12.434;2023-12-29T02:31:06;100052.44;;;9.02;100.00
33280;BME280;20403;43.114;12.434;2023-12-29T02:33:38;100051.38;;;8.96;100.00
33280;BME280;20403;43.114;12.434;2023-12-29T02:36:05;100051.22;;;8.98;100.00
33280;BME280;20403;43.114;12.434;2023-12-29T02:38:31;100046.25;;;9.03;100.00
33280;BME280;20403;43.114;12.434;2023-12-29T02:40:58;100047.88;;;9.04;100.00
33280;BME280;20403;43.114;12.434;2023-12-29T02:43:23;100042.09;;;9.09;100.00
33280;BME280;20403;43.114;12.434;2023-12-29T02:45:49;100039.50;;;9.09;100.00
33280;BME280;20403;43.114;12.434;2023-12-29T02:48:14;100043.06;;;9.08;100.00
33280;BME280;20403;43.114;12.434;2023-12-29T02:50:40;100041.66;;;9.05;100.00
33280;BME280;20403;43.114;12.434;2023-12-29T02:53:05;100040.41;;;9.01;100.00
33280;BME280;20403;43.114;12.434;2023-12-29T02:55:31;100035.03;;;9.02;100.00
33280;BME280;20403;43.114;12.434;2023-12-29T02:57:56;100032.25;;;9.04;100.00
33280;BME280;20403;43.114;12.434;2023-12-29T03:00:21;100031.06;;;9.07;100.00
33280;BME280;20403;43.114;12.434;2023-12-29T03:02:47;100029.66;;;9.04;100.00
33280;BME280;20403;43.114;12.434;2023-12-29T03:05:13;100024.25;;;9.05;100.00
33280;BME280;20403;43.114;12.434;2023-12-29T03:07:38;100027.22;;;9.02;100.00
33280;BME280;20403;43.114;12.434;2023-12-29T03:10:06;100026.03;;;9.05;100.00
33280;BME280;20403;43.114;12.434;2023-12-29T03:12:32;100028.28;;;9.08;100.00
33280;BME280;20403;43.114;12.434;2023-12-29T03:14:57;100025.34;;;9.18;100.00
33280;BME280;20403;43.114;12.434;2023-12-29T03:17:23;100032.66;;;9.29;100.00
33280;BME280;20403;43.114;12.434;2023-12-29T03:19:48;100030.59;;;9.24;100.00
33280;BME280;20403;43.114;12.434;2023-12-29T03:22:13;100027.06;;;9.32;100.00
33280;BME280;20403;43.114;12.434;2023-12-29T03:24:40;100029.03;;;9.30;100.00
33280;BME280;20403;43.114;12.434;2023-12-29T03:27:06;100021.41;;;9.29;100.00
33280;BME280;20403;43.114;12.434;2023-12-29T03:29:32;100013.75;;;9.20;100.00
33280;BME280;20403;43.114;12.434;2023-12-29T03:31:57;100017.34;;;9.19;100.00
33280;BME280;20403;43.114;12.434;2023-12-29T03:34:22;100012.41;;;9.24;100.00
33280;BME280;20403;43.114;12.434;2023-12-29T03:36:48;100018.81;;;9.29;100.00
33280;BME280;20403;43.114;12.434;2023-12-29T03:39:13;100017.78;;;9.23;100.00
33280;BME280;20403;43.114;12.434;2023-12-29T03:41:39;100016.97;;;9.22;100.00
33280;BME280;20403;43.114;12.434;2023-12-29T03:44:04;100022.59;;;9.26;100.00
33280;BME280;20403;43.114;12.434;2023-12-29T03:46:31;100020.81;;;9.27;100.00
33280;BME280;20403;43.114;12.434;2023-12-29T03:48:57;100018.00;;;9.28;100.00
33280;BME280;20403;43.114;12.434;2023-12-29T03:51:22;100020.59;;;9.28;100.00
33280;BME280;20403;43.114;12.434;2023-12-29T03:53:47;100018.56;;;9.23;100.00
33280;BME280;20403;43.114;12.434;2023-12-29T03:56:14;100010.78;;;9.23;100.00
33280;BME280;20403;43.114;12.434;2023-12-29T03:58:41;100009.97;;;9.23;100.00
33280;BME280;20403;43.114;12.434;2023-12-29T04:01:11;100008.31;;;9.15;100.00
33280;BME280;20403;43.114;12.434;2023-12-29T04:03:37;100019.91;;;9.13;100.00
33280;BME280;20403;43.114;12.434;2023-12-29T04:06:03;100017.50;;;9.11;100.00
33280;BME280;20403;43.114;12.434;2023-12-29T04:08:28;100011.91;;;9.14;100.00
33280;BME280;20403;43.114;12.434;2023-12-29T04:10:54;100006.34;;;9.17;100.00
33280;BME280;20403;43.114;12.434;2023-12-29T04:13:19;100011.91;;;9.14;100.00
33280;BME280;20403;43.114;12.434;2023-12-29T04:15:45;100012.28;;;9.11;100.00
33280;BME280;20403;43.114;12.434;2023-12-29T04:18:10;100012.13;;;9.13;100.00
33280;BME280;20403;43.114;12.434;2023-12-29T04:20:35;100017.09;;;9.14;100.00
33280;BME280;20403;43.114;12.434;2023-12-29T04:23:02;100009.69;;;9.11;100.00
33280;BME280;20403;43.114;12.434;2023-12-29T04:25:27;100010.25;;;9.07;100.00
33280;BME280;20403;43.114;12.434;2023-12-29T04:27:53;100016.09;;;9.09;100.00
33280;BME280;20403;43.114;12.434;2023-12-29T04:30:18;100019.31;;;9.11;100.00
33280;BME280;20403;43.114;12.434;2023-12-29T04:32:44;100012.69;;;9.08;100.00
33280;BME280;20403;43.114;12.434;2023-12-29T04:35:09;100013.47;;;9.09;100.00
33280;BME280;20403;43.114;12.434;2023-12-29T04:37:38;100014.03;;;9.04;100.00
33280;BME280;20403;43.114;12.434;2023-12-29T04:40:04;100014.66;;;9.06;100.00
33280;BME280;20403;43.114;12.434;2023-12-29T04:42:30;100015.03;;;9.03;100.00
33280;BME280;20403;43.114;12.434;2023-12-29T04:44:55;100019.66;;;9.08;100.00
33280;BME280;20403;43.114;12.434;2023-12-29T04:47:20;100007.66;;;9.07;100.00
33280;BME280;20403;43.114;12.434;2023-12-29T04:49:46;100011.22;;;9.05;100.00
33280;BME280;20403;43.114;12.434;2023-12-29T04:52:11;100010.66;;;9.03;100.00
33280;BME280;20403;43.114;12.434;2023-12-29T04:54:37;100007.22;;;9.03;100.00
33280;BME280;20403;43.114;12.434;2023-12-29T04:57:02;100002.84;;;9.03;100.00
33280;BME280;20403;43.114;12.434;2023-12-29T04:59:28;100003.25;;;9.07;100.00
33280;BME280;20403;43.114;12.434;2023-12-29T05:01:53;100002.44;;;9.07;100.00
33280;BME280;20403;43.114;12.434;2023-12-29T05:04:18;100002.28;;;9.08;100.00
33280;BME280;20403;43.114;12.434;2023-12-29T05:06:44;100004.72;;;9.16;100.00
33280;BME280;20403;43.114;12.434;2023-12-29T05:09:09;100011.97;;;9.21;100.00
33280;BME280;20403;43.114;12.434;2023-12-29T05:11:35;100011.97;;;9.21;100.00
33280;BME280;20403;43.114;12.434;2023-12-29T05:14:00;100013.75;;;9.20;100.00
33280;BME280;20403;43.114;12.434;2023-12-29T05:16:25;100009.97;;;9.23;100.00
33280;BME280;20403;43.114;12.434;2023-12-29T05:18:51;100009.69;;;9.11;100.00
33280;BME280;20403;43.114;12.434;2023-12-29T05:21:17;100007.09;;;9.11;100.00
33280;BME280;20403;43.114;12.434;2023-12-29T05:23:46;100006.03;;;9.05;100.00
33280;BME280;20403;43.114;12.434;2023-12-29T05:26:12;100007.66;;;9.07;100.00
33280;BME280;20403;43.114;12.434;2023-12-29T05:28:38;100014.47;;;9.08;100.00
33280;BME280;20403;43.114;12.434;2023-12-29T05:31:03;100013.66;;;9.07;100.00
33280;BME280;20403;43.114;12.434;2023-12-29T05:33:30;100024.13;;;9.14;100.00
33280;BME280;20403;43.114;12.434;2023-12-29T05:35:56;100015.84;;;9.03;100.00
33280;BME280;20403;43.114;12.434;2023-12-29T05:38:21;100020.66;;;9.07;100.00
33280;BME280;20403;43.114;12.434;2023-12-29T05:40:46;100019.44;;;9.02;100.00
33280;BME280;20403;43.114;12.434;2023-12-29T05:43:12;100005.06;;;9.07;100.00
33280;BME280;20403;43.114;12.434;2023-12-29T05:45:37;100008.63;;;9.05;100.00
33280;BME280;20403;43.114;12.434;2023-12-29T05:48:03;100005.81;;;9.00;100.00
33280;BME280;20403;43.114;12.434;2023-12-29T05:50:28;100009.19;;;9.01;100.00
33280;BME280;20403;43.114;12.434;2023-12-29T05:52:54;100002.84;;;9.03;100.00
33280;BME280;20403;43.114;12.434;2023-12-29T05:55:19;100003.63;;;9.04;100.00
33280;BME280;20403;43.114;12.434;2023-12-29T05:57:44;100009.25;;;9.08;100.00
33280;BME280;20403;43.114;12.434;2023-12-29T06:00:11;100008.91;;;9.11;100.00
33280;BME280;20403;43.114;12.434;2023-12-29T06:02:40;100009.94;;;9.16;100.00
33280;BME280;20403;43.114;12.434;2023-12-29T06:05:07;99999.69;;;9.15;100.00
33280;BME280;20403;43.114;12.434;2023-12-29T06:07:33;100001.13;;;9.17;100.00
33280;BME280;20403;43.114;12.434;2023-12-29T06:09:58;100006.13;;;9.19;100.00
33280;BME280;20403;43.114;12.434;2023-12-29T06:12:24;99999.69;;;9.15;100.00
33280;BME280;20403;43.114;12.434;2023-12-29T06:14:49;99999.06;;;9.06;100.00
33280;BME280;20403;43.114;12.434;2023-12-29T06:17:15;99993.59;;;9.01;100.00
33280;BME280;20403;43.114;12.434;2023-12-29T06:19:41;99990.63;;;9.04;100.00
33280;BME280;20403;43.114;12.434;2023-12-29T06:22:06;99988.09;;;9.11;100.00
33280;BME280;20403;43.114;12.434;2023-12-29T06:24:36;99992.84;;;9.07;100.00
33280;BME280;20403;43.114;12.434;2023-12-29T06:27:02;99990.00;;;9.02;100.00
33280;BME280;20403;43.114;12.434;2023-12-29T06:29:27;99992.44;;;9.03;100.00
33280;BME280;20403;43.114;12.434;2023-12-29T06:31:53;99990.41;;;8.99;100.00
33280;BME280;20403;43.114;12.434;2023-12-29T06:34:18;99989.56;;;8.98;100.00
33280;BME280;20403;43.114;12.434;2023-12-29T06:36:44;99981.78;;;8.98;100.00
33280;BME280;20403;43.114;12.434;2023-12-29T06:39:09;99981.97;;;8.97;100.00
33280;BME280;20403;43.114;12.434;2023-12-29T06:41:35;99975.94;;;8.96;100.00
33280;BME280;20403;43.114;12.434;2023-12-29T06:44:00;99983.44;;;9.06;100.00
33280;BME280;20403;43.114;12.434;2023-12-29T06:46:26;99985.47;;;9.11;100.00
33280;BME280;20403;43.114;12.434;2023-12-29T06:48:51;99985.66;;;9.09;100.00
33280;BME280;20403;43.114;12.434;2023-12-29T06:51:17;99987.59;;;9.00;100.00
33280;BME280;20403;43.114;12.434;2023-12-29T06:53:43;99982.81;;;9.04;100.00
33280;BME280;20403;43.114;12.434;2023-12-29T06:56:15;99986.63;;;9.01;100.00
33280;BME280;20403;43.114;12.434;2023-12-29T06:58:41;99986.00;;;8.99;100.00
33280;BME280;20403;43.114;12.434;2023-12-29T07:01:07;99990.19;;;9.00;100.00
33280;BME280;20403;43.114;12.434;2023-12-29T07:03:32;99988.66;;;9.06;100.00
33280;BME280;20403;43.114;12.434;2023-12-29T07:06:00;99986.22;;;9.04;100.00
33280;BME280;20403;43.114;12.434;2023-12-29T07:08:26;99983.44;;;9.06;100.00
33280;BME280;20403;43.114;12.434;2023-12-29T07:10:51;99987.03;;;9.05;100.00
33280;BME280;20403;43.114;12.434;2023-12-29T07:13:17;99991.59;;;9.03;100.00
33280;BME280;20403;43.114;12.434;2023-12-29T07:15:43;99991.53;;;9.18;100.00
33280;BME280;20403;43.114;12.434;2023-12-29T07:18:08;99988.16;;;9.24;100.00
33280;BME280;20403;43.114;12.434;2023-12-29T07:20:33;99994.59;;;9.28;100.00
33280;BME280;20403;43.114;12.434;2023-12-29T07:23:00;99988.44;;;9.36;100.00
33280;BME280;20403;43.114;12.434;2023-12-29T07:25:26;99989.84;;;9.38;100.00
33280;BME280;20403;43.114;12.434;2023-12-29T07:27:51;99987.88;;;9.40;100.00
33280;BME280;20403;43.114;12.434;2023-12-29T07:30:18;99986.44;;;9.38;100.00
33280;BME280;20403;43.114;12.434;2023-12-29T07:32:43;99988.63;;;9.34;100.00
33280;BME280;20403;43.114;12.434;2023-12-29T07:35:09;99989.44;;;9.35;100.00
33280;BME280;20403;43.114;12.434;2023-12-29T07:37:34;99997.47;;;9.40;100.00
33280;BME280;20403;43.114;12.434;2023-12-29T07:40:00;99989.88;;;9.45;100.00
33280;BME280;20403;43.114;12.434;2023-12-29T07:42:25;99997.69;;;9.45;100.00
33280;BME280;20403;43.114;12.434;2023-12-29T07:44:50;99995.47;;;9.42;100.00
33280;BME280;20403;43.114;12.434;2023-12-29T07:47:16;99996.84;;;9.38;100.00
33280;BME280;20403;43.114;12.434;2023-12-29T07:49:42;99997.06;;;9.36;100.00
33280;BME280;20403;43.114;12.434;2023-12-29T07:52:08;100006.31;;;9.45;100.00
33280;BME280;20403;43.114;12.434;2023-12-29T07:54:33;100003.50;;;9.47;100.00
33280;BME280;20403;43.114;12.434;2023-12-29T07:56:58;100008.09;;;9.45;100.00
33280;BME280;20403;43.114;12.434;2023-12-29T07:59:24;100007.72;;;9.48;100.00
33280;BME280;20403;43.114;12.434;2023-12-29T08:01:50;100010.78;;;9.58;100.00
33280;BME280;20403;43.114;12.434;2023-12-29T08:04:15;100018.03;;;9.70;100.00
33280;BME280;20403;43.114;12.434;2023-12-29T08:06:41;100014.03;;;9.67;100.00
33280;BME280;20403;43.114;12.434;2023-12-29T08:09:06;100022.84;;;9.66;100.00
33280;BME280;20403;43.114;12.434;2023-12-29T08:11:33;100022.06;;;9.72;100.00
33280;BME280;20403;43.114;12.434;2023-12-29T08:13:58;100021.72;;;9.82;100.00
33280;BME280;20403;43.114;12.434;2023-12-29T08:16:23;100025.75;;;9.84;100.00
33280;BME280;20403;43.114;12.434;2023-12-29T08:18:49;100025.75;;;9.91;100.00
33280;BME280;20403;43.114;12.434;2023-12-29T08:21:18;100038.59;;;9.93;100.00
33280;BME280;20403;43.114;12.434;2023-12-29T08:23:45;100031.00;;;9.98;100.00
33280;BME280;20403;43.114;12.434;2023-12-29T08:26:11;100037.44;;;10.02;100.00
33280;BME280;20403;43.114;12.434;2023-12-29T08:28:37;100031.63;;;10.06;100.00
33280;BME280;20403;43.114;12.434;2023-12-29T08:31:02;100046.44;;;9.99;100.00
33280;BME280;20403;43.114;12.434;2023-12-29T08:33:27;100034.44;;;9.98;100.00
33280;BME280;20403;43.114;12.434;2023-12-29T08:35:53;100036.81;;;10.00;100.00
33280;BME280;20403;43.114;12.434;2023-12-29T08:38:18;100040.66;;;10.04;100.00
33280;BME280;20403;43.114;12.434;2023-12-29T08:40:44;100033.44;;;10.06;100.00
33280;BME280;20403;43.114;12.434;2023-12-29T08:43:09;100040.25;;;10.07;100.00
33280;BME280;20403;43.114;12.434;2023-12-29T08:45:35;100037.88;;;10.12;100.00
33280;BME280;20403;43.114;12.434;2023-12-29T08:48:01;100043.91;;;10.13;100.00
33280;BME280;20403;43.114;12.434;2023-12-29T08:50:28;100048.31;;;10.12;100.00
33280;BME280;20403;43.114;12.434;2023-12-29T08:52:53;100038.69;;;10.13;100.00
33280;BME280;20403;43.114;12.434;2023-12-29T08:55:19;100039.09;;;10.23;100.00
33280;BME280;20403;43.114;12.434;2023-12-29T08:57:44;100042.78;;;10.28;100.00
33280;BME280;20403;43.114;12.434;2023-12-29T09:00:10;100044.75;;;10.26;100.00
33280;BME280;20403;43.114;12.434;2023-12-29T09:02:35;100048.38;;;10.32;100.00
33280;BME280;20403;43.114;12.434;2023-12-29T09:05:00;100057.25;;;10.38;100.00
33280;BME280;20403;43.114;12.434;2023-12-29T09:07:26;100048.84;;;10.42;100.00
33280;BME280;20403;43.114;12.434;2023-12-29T09:09:53;100056.06;;;10.54;100.00
33280;BME280;20403;43.114;12.434;2023-12-29T09:12:18;100047.06;;;10.56;100.00
33280;BME280;20403;43.114;12.434;2023-12-29T09:14:44;100051.09;;;10.65;100.00
33280;BME280;20403;43.114;12.434;2023-12-29T09:17:09;100043.47;;;10.64;100.00
33280;BME280;20403;43.114;12.434;2023-12-29T09:19:35;100047.66;;;10.71;100.00
33280;BME280;20403;43.114;12.434;2023-12-29T09:22:00;100051.31;;;10.77;100.00
33280;BME280;20403;43.114;12.434;2023-12-29T09:24:26;100051.50;;;10.76;100.00
33280;BME280;20403;43.114;12.434;2023-12-29T09:26:51;100050.69;;;10.75;100.00
33280;BME280;20403;43.114;12.434;2023-12-29T09:29:17;100046.69;;;10.79;100.00
33280;BME280;20403;43.114;12.434;2023-12-29T09:31:43;100056.50;;;10.90;100.00
33280;BME280;20403;43.114;12.434;2023-12-29T09:34:08;100047.28;;;10.94;100.00
33280;BME280;20403;43.114;12.434;2023-12-29T09:36:34;100051.13;;;10.99;100.00
33280;BME280;20403;43.114;12.434;2023-12-29T09:38:59;100048.09;;;11.02;100.00
33280;BME280;20403;43.114;12.434;2023-12-29T09:41:25;100049.50;;;11.04;100.00
33280;BME280;20403;43.114;12.434;2023-12-29T09:43:53;100052.09;;;11.11;100.00
33280;BME280;20403;43.114;12.434;2023-12-29T09:46:21;100042.50;;;11.11;100.00
33280;BME280;20403;43.114;12.434;2023-12-29T09:48:47;100045.28;;;11.17;100.00
33280;BME280;20403;43.114;12.434;2023-12-29T09:51:15;100040.47;;;11.20;100.00
33280;BME280;20403;43.114;12.434;2023-12-29T09:53:41;100042.47;;;11.25;100.00
33280;BME280;20403;43.114;12.434;2023-12-29T09:56:08;100037.22;;;11.31;100.00
33280;BME280;20403;43.114;12.434;2023-12-29T09:58:34;100034.44;;;11.33;100.00
33280;BME280;20403;43.114;12.434;2023-12-29T10:01:03;100037.22;;;11.38;100.00
33280;BME280;20403;43.114;12.434;2023-12-29T10:03:30;100041.03;;;11.42;100.00
33280;BME280;20403;43.114;12.434;2023-12-29T10:05:56;100031.41;;;11.43;100.00
33280;BME280;20403;43.114;12.434;2023-12-29T10:08:26;100034.41;;;11.53;100.00
33280;BME280;20403;43.114;12.434;2023-12-29T10:10:53;100025.94;;;11.57;100.00
33280;BME280;20403;43.114;12.434;2023-12-29T10:13:20;100023.31;;;11.57;100.00
33280;BME280;20403;43.114;12.434;2023-12-29T10:18:42;100034.16;;;11.61;100.00
33280;BME280;20403;43.114;12.434;2023-12-29T10:21:33;100019.47;;;11.67;100.00
33280;BME280;20403;43.114;12.434;2023-12-29T10:24:07;100013.06;;;11.69;100.00
33280;BME280;20403;43.114;12.434;2023-12-29T10:26:35;100015.66;;;11.69;100.00
33280;BME280;20403;43.114;12.434;2023-12-29T10:29:02;100009.59;;;11.75;100.00
33280;BME280;20403;43.114;12.434;2023-12-29T10:31:27;100011.81;;;11.78;100.00
33280;BME280;20403;43.114;12.434;2023-12-29T10:34:30;100006.19;;;11.88;100.00
33280;BME280;20403;43.114;12.434;2023-12-29T10:37:00;99999.72;;;11.91;100.00
33280;BME280;20403;43.114;12.434;2023-12-29T10:39:28;99996.88;;;11.99;100.00
33280;BME280;20403;43.114;12.434;2023-12-29T10:42:06;99994.44;;;12.04;100.00
33280;BME280;20403;43.114;12.434;2023-12-29T10:44:35;99982.75;;;12.13;100.00
33280;BME280;20403;43.114;12.434;2023-12-29T10:47:11;99981.09;;;12.19;100.00
33280;BME280;20403;43.114;12.434;2023-12-29T10:49:37;99970.59;;;12.26;100.00
33280;BME280;20403;43.114;12.434;2023-12-29T10:52:15;99974.75;;;12.33;100.00
33280;BME280;20403;43.114;12.434;2023-12-29T10:54:44;99967.25;;;12.44;100.00
33280;BME280;20403;43.114;12.434;2023-12-29T10:57:11;99967.56;;;12.54;100.00
33280;BME280;20403;43.114;12.434;2023-12-29T10:59:37;99961.44;;;12.67;100.00
33280;BME280;20403;43.114;12.434;2023-12-29T11:02:03;99951.72;;;12.74;100.00
33280;BME280;20403;43.114;12.434;2023-12-29T11:04:29;99950.84;;;12.80;100.00
33280;BME280;20403;43.114;12.434;2023-12-29T11:06:55;99948.22;;;12.80;100.00
33280;BME280;20403;43.114;12.434;2023-12-29T11:09:31;99941.78;;;12.82;100.00
33280;BME280;20403;43.114;12.434;2023-12-29T11:12:00;99939.00;;;12.77;100.00
33280;BME280;20403;43.114;12.434;2023-12-29T11:14:26;99935.78;;;12.75;100.00
33280;BME280;20403;43.114;12.434;2023-12-29T11:16:54;99932.75;;;12.78;100.00
33280;BME280;20403;43.114;12.434;2023-12-29T11:19:20;99936.97;;;12.79;100.00
33280;BME280;20403;43.114;12.434;2023-12-29T11:21:46;99937.34;;;12.83;100.00
33280;BME280;20403;43.114;12.434;2023-12-29T11:24:13;99924.25;;;12.83;100.00
33280;BME280;20403;43.114;12.434;2023-12-29T11:26:39;99922.19;;;12.92;100.00
33280;BME280;20403;43.114;12.434;2023-12-29T11:29:08;99925.16;;;12.95;100.00
33280;BME280;20403;43.114;12.434;2023-12-29T11:31:33;99922.47;;;13.02;100.00
33280;BME280;20403;43.114;12.434;2023-12-29T11:34:06;99920.28;;;12.99;100.00
33280;BME280;20403;43.114;12.434;2023-12-29T11:36:40;99921.22;;;13.04;100.00
33280;BME280;20403;43.114;12.434;2023-12-29T11:44:26;99911.41;;;13.00;100.00
33280;BME280;20403;43.114;12.434;2023-12-29T11:46:52;99910.41;;;13.01;100.00
33280;BME280;20403;43.114;12.434;2023-12-29T11:49:19;99908.34;;;13.03;100.00
33280;BME280;20403;43.114;12.434;2023-12-29T11:51:49;99910.03;;;12.97;100.00
33280;BME280;20403;43.114;12.434;2023-12-29T11:54:24;99889.03;;;13.04;100.00
33280;BME280;20403;43.114;12.434;2023-12-29T11:56:50;99892.44;;;13.04;100.00
33280;BME280;20403;43.114;12.434;2023-12-29T11:59:23;99889.38;;;13.08;100.00
33280;BME280;20403;43.114;12.434;2023-12-29T12:01:53;99883.34;;;13.07;100.00
33280;BME280;20403;43.114;12.434;2023-12-29T12:04:44;99875.84;;;13.11;100.00
33280;BME280;20403;43.114;12.434;2023-12-29T12:07:16;99875.84;;;13.11;100.00
33280;BME280;20403;43.114;12.434;2023-12-29T12:09:41;99874.97;;;13.17;100.00
33280;BME280;20403;43.114;12.434;2023-12-29T12:12:07;99873.75;;;13.19;100.00
33280;BME280;20403;43.114;12.434;2023-12-29T12:14:49;99869.38;;;13.13;100.00
33280;BME280;20403;43.114;12.434;2023-12-29T12:19:57;99857.47;;;13.17;100.00
33280;BME280;20403;43.114;12.434;2023-12-29T12:22:24;99861.06;;;13.16;100.00
33280;BME280;20403;43.114;12.434;2023-12-29T12:24:55;99866.25;;;13.23;100.00
33280;BME280;20403;43.114;12.434;2023-12-29T12:27:21;99863.28;;;13.19;100.00
33280;BME280;20403;43.114;12.434;2023-12-29T12:29:52;99860.66;;;13.19;100.00
33280;BME280;20403;43.114;12.434;2023-12-29T12:32:20;99863.41;;;13.24;100.00
33280;BME280;20403;43.114;12.434;2023-12-29T12:34:47;99855.94;;;13.28;100.00
33280;BME280;20403;43.114;12.434;2023-12-29T12:37:12;99853.50;;;13.27;100.00
33280;BME280;20403;43.114;12.434;2023-12-29T12:39:41;99855.13;;;13.28;100.00
33280;BME280;20403;43.114;12.434;2023-12-29T12:42:06;99846.53;;;13.39;100.00
33280;BME280;20403;43.114;12.434;2023-12-29T12:44:32;99846.38;;;13.52;100.00
33280;BME280;20403;43.114;12.434;2023-12-29T12:46:59;99836.47;;;13.54;100.00
33280;BME280;20403;43.114;12.434;2023-12-29T12:49:29;99833.84;;;13.54;100.00